createdAt,value
2023-01-23T00:00:59.947Z,33.97
2023-01-23T00:03:26.611Z,34.01
2023-01-23T00:05:58.499Z,33.93
2023-01-23T00:08:25.341Z,33.88
2023-01-23T00:10:52.105Z,34.00
2023-01-23T00:13:18.977Z,33.93
2023-01-23T00:15:45.660Z,33.84
2023-01-23T00:18:12.343Z,33.82
2023-01-23T00:20:39.640Z,33.92
2023-01-23T00:23:06.714Z,33.88
2023-01-23T00:25:34.458Z,33.86
2023-01-23T00:28:01.553Z,33.83
2023-01-23T00:30:28.234Z,33.80
2023-01-23T00:32:55.115Z,33.80
2023-01-23T00:35:22.141Z,33.76
2023-01-23T00:37:48.845Z,33.75
2023-01-23T00:40:15.677Z,33.77
2023-01-23T00:42:42.338Z,33.74
2023-01-23T00:45:09.662Z,33.65
2023-01-23T00:47:36.517Z,33.64
2023-01-23T00:50:03.434Z,33.68
2023-01-23T00:52:30.814Z,33.61
2023-01-23T00:54:57.466Z,33.56
2023-01-23T00:57:24.197Z,33.62
2023-01-23T00:59:50.915Z,33.77
2023-01-23T01:02:17.569Z,33.62
2023-01-23T01:04:44.220Z,33.60
2023-01-23T01:07:10.930Z,33.58
2023-01-23T01:09:37.579Z,33.70
2023-01-23T01:12:04.530Z,33.65
2023-01-23T01:14:31.220Z,33.70
2023-01-23T01:16:58.932Z,33.60
2023-01-23T01:19:25.768Z,33.43
2023-01-23T01:21:52.464Z,33.59
2023-01-23T01:24:19.328Z,33.53
2023-01-23T01:26:45.992Z,33.56
2023-01-23T01:29:12.718Z,33.55
2023-01-23T01:31:43.446Z,33.52
2023-01-23T01:34:10.167Z,33.51
2023-01-23T01:36:36.950Z,33.51
2023-01-23T01:39:03.791Z,33.46
2023-01-23T01:41:31.140Z,33.50
2023-01-23T01:44:00.157Z,33.56
2023-01-23T01:46:29.184Z,33.58
2023-01-23T01:49:08.225Z,33.54
2023-01-23T01:51:44.539Z,33.55
2023-01-23T01:54:11.479Z,33.61
2023-01-23T01:56:49.362Z,33.61
2023-01-23T01:59:16.832Z,33.61
2023-01-23T02:01:44.302Z,33.65
2023-01-23T02:04:11.148Z,33.50
2023-01-23T02:06:37.886Z,33.54
2023-01-23T02:09:09.026Z,33.57
2023-01-23T02:11:35.831Z,33.54
2023-01-23T02:14:02.617Z,33.43
2023-01-23T02:16:33.951Z,33.41
2023-01-23T02:19:02.182Z,33.38
2023-01-23T02:21:29.700Z,33.41
2023-01-23T02:24:05.585Z,33.28
2023-01-23T02:26:38.417Z,33.22
2023-01-23T02:29:05.457Z,33.16
2023-01-23T02:31:43.009Z,33.11
2023-01-23T02:34:11.276Z,32.99
2023-01-23T02:36:38.365Z,32.93
2023-01-23T02:39:14.441Z,33.02
2023-01-23T02:41:49.228Z,33.08
2023-01-23T02:44:19.925Z,32.99
2023-01-23T02:46:51.421Z,32.97
2023-01-23T02:49:18.310Z,33.05
2023-01-23T02:51:45.150Z,33.09
2023-01-23T02:54:12.581Z,33.04
2023-01-23T02:56:39.281Z,32.99
2023-01-23T02:59:24.880Z,33.03
2023-01-23T03:01:51.903Z,33.09
2023-01-23T03:04:18.937Z,32.99
2023-01-23T03:06:45.672Z,32.97
2023-01-23T03:09:13.933Z,32.82
2023-01-23T03:11:41.178Z,32.91
2023-01-23T03:14:10.073Z,32.89
2023-01-23T03:16:38.472Z,32.85
2023-01-23T03:19:08.364Z,32.87
2023-01-23T03:21:36.869Z,32.82
2023-01-23T03:24:05.384Z,32.83
2023-01-23T03:26:32.118Z,32.89
2023-01-23T03:29:18.023Z,32.90
2023-01-23T03:31:45.222Z,32.79
2023-01-23T03:34:11.967Z,32.87
2023-01-23T03:36:39.064Z,32.82
2023-01-23T03:39:25.023Z,32.75
2023-01-23T03:41:53.336Z,32.88
2023-01-23T03:44:20.983Z,32.88
2023-01-23T03:46:48.658Z,32.91
2023-01-23T03:49:15.692Z,32.83
2023-01-23T03:51:42.641Z,32.83
2023-01-23T03:54:09.565Z,32.83
2023-01-23T03:56:37.147Z,32.89
2023-01-23T03:59:04.257Z,32.91
2023-01-23T04:01:31.075Z,33.01
2023-01-23T04:03:57.736Z,32.89
2023-01-23T04:06:24.657Z,32.90
2023-01-23T04:08:51.508Z,32.86
2023-01-23T04:11:18.363Z,32.83
2023-01-23T04:13:46.798Z,32.80
2023-01-23T04:16:13.685Z,32.90
2023-01-23T04:18:41.017Z,32.89
2023-01-23T04:21:07.785Z,32.92
2023-01-23T04:23:34.561Z,32.92
2023-01-23T04:26:02.458Z,32.85
2023-01-23T04:28:29.353Z,32.84
2023-01-23T04:30:59.349Z,32.84
2023-01-23T04:33:29.817Z,32.85
2023-01-23T04:36:01.004Z,32.83
2023-01-23T04:38:29.401Z,32.92
2023-01-23T04:40:56.826Z,32.88
2023-01-23T04:43:23.805Z,32.92
2023-01-23T04:45:52.570Z,32.92
2023-01-23T04:48:19.509Z,32.90
2023-01-23T04:50:46.200Z,32.84
2023-01-23T04:53:14.117Z,32.89
2023-01-23T04:55:41.251Z,32.97
2023-01-23T04:58:11.507Z,33.03
2023-01-23T05:00:38.524Z,32.90
2023-01-23T05:03:05.982Z,32.96
2023-01-23T05:05:33.667Z,33.01
2023-01-23T05:08:00.839Z,32.99
2023-01-23T05:10:28.556Z,33.09
2023-01-23T05:12:56.239Z,32.88
2023-01-23T05:15:24.786Z,32.99
2023-01-23T05:17:51.495Z,32.99
2023-01-23T05:20:20.717Z,32.96
2023-01-23T05:22:53.929Z,33.01
2023-01-23T05:25:27.215Z,33.10
2023-01-23T05:27:54.683Z,33.09
2023-01-23T05:30:22.783Z,33.00
2023-01-23T05:32:51.588Z,32.98
2023-01-23T05:35:20.847Z,33.00
2023-01-23T05:37:51.713Z,33.02
2023-01-23T05:40:21.363Z,33.02
2023-01-23T05:43:07.240Z,32.91
2023-01-23T05:46:00.482Z,33.02
2023-01-23T05:48:43.043Z,32.97
2023-01-23T05:51:10.724Z,33.10
2023-01-23T05:53:37.562Z,33.01
2023-01-23T05:56:08.235Z,33.08
2023-01-23T05:58:40.997Z,33.05
2023-01-23T06:01:30.797Z,33.02
2023-01-23T06:04:16.360Z,33.06
2023-01-23T06:06:52.190Z,33.19
2023-01-23T06:09:18.960Z,33.02
2023-01-23T06:11:45.724Z,33.02
2023-01-23T06:14:12.448Z,33.07
2023-01-23T06:16:39.159Z,33.02
2023-01-23T06:19:06.208Z,33.12
2023-01-23T06:21:34.651Z,33.02
2023-01-23T06:24:01.742Z,33.05
2023-01-23T06:26:47.377Z,33.07
2023-01-23T06:29:14.369Z,33.18
2023-01-23T06:31:41.684Z,33.06
2023-01-23T06:34:08.595Z,33.05
2023-01-23T06:36:40.527Z,33.09
2023-01-23T06:39:07.983Z,33.13
2023-01-23T06:41:39.889Z,33.16
2023-01-23T06:44:07.778Z,33.21
2023-01-23T06:46:35.452Z,33.10
2023-01-23T06:49:05.137Z,33.20
2023-01-23T06:51:33.597Z,33.18
2023-01-23T06:54:00.886Z,33.29
2023-01-23T06:56:28.628Z,33.21
2023-01-23T06:58:55.801Z,33.31
2023-01-23T07:01:29.456Z,33.18
2023-01-23T07:04:15.207Z,33.19
2023-01-23T07:06:42.672Z,33.24
2023-01-23T07:09:09.917Z,33.25
2023-01-23T07:11:37.464Z,33.28
2023-01-23T07:14:05.584Z,33.29
2023-01-23T07:16:33.142Z,33.21
2023-01-23T07:18:59.929Z,33.20
2023-01-23T07:21:30.596Z,33.22
2023-01-23T07:23:57.331Z,33.17
2023-01-23T07:26:24.009Z,33.21
2023-01-23T07:28:50.690Z,33.28
2023-01-23T07:31:17.508Z,33.32
2023-01-23T07:33:44.262Z,33.46
2023-01-23T07:36:14.099Z,33.37
2023-01-23T07:38:41.323Z,33.48
2023-01-23T07:41:08.216Z,33.52
2023-01-23T07:43:34.942Z,33.57
2023-01-23T07:46:02.680Z,33.55
2023-01-23T07:48:29.537Z,33.50
2023-01-23T07:50:56.226Z,33.51
2023-01-23T07:53:22.897Z,33.52
2023-01-23T07:55:49.670Z,33.61
2023-01-23T07:58:16.320Z,33.59
2023-01-23T08:00:43.147Z,33.52
2023-01-23T08:03:09.846Z,33.61
2023-01-23T08:05:36.591Z,33.64
2023-01-23T08:10:05.996Z,34.11
2023-01-23T08:12:32.706Z,33.81
2023-01-23T08:14:59.899Z,33.59
2023-01-23T08:17:26.736Z,33.54
2023-01-23T08:19:53.529Z,33.61
2023-01-23T08:22:20.242Z,33.51
2023-01-23T08:24:47.401Z,33.58
2023-01-23T08:27:14.356Z,33.68
2023-01-23T08:29:41.132Z,33.62
2023-01-23T08:32:07.859Z,33.59
2023-01-23T08:34:34.705Z,33.64
2023-01-23T08:37:01.381Z,33.62
2023-01-23T08:39:28.212Z,33.69
2023-01-23T08:41:54.863Z,33.62
2023-01-23T08:44:21.542Z,33.64
2023-01-23T08:46:48.205Z,33.57
2023-01-23T08:49:15.013Z,33.66
2023-01-23T08:51:41.957Z,33.58
2023-01-23T08:54:08.611Z,33.67
2023-01-23T08:56:35.356Z,33.64
2023-01-23T08:59:02.181Z,33.65
2023-01-23T09:01:28.939Z,33.62
2023-01-23T09:03:56.640Z,33.60
2023-01-23T09:06:23.374Z,33.59
2023-01-23T09:08:50.224Z,33.56
2023-01-23T09:11:19.494Z,33.60
2023-01-23T09:13:46.942Z,33.64
2023-01-23T09:16:13.992Z,33.63
2023-01-23T09:18:40.774Z,33.59
2023-01-23T09:21:09.014Z,33.57
2023-01-23T09:23:36.104Z,33.55
2023-01-23T09:26:10.226Z,33.56
2023-01-23T09:28:37.923Z,33.21
2023-01-23T09:31:07.315Z,32.31
2023-01-23T09:33:34.907Z,31.52
2023-01-23T09:36:02.180Z,30.87
2023-01-23T09:38:28.891Z,30.55
2023-01-23T09:40:57.643Z,30.40
2023-01-23T09:43:28.142Z,30.70
2023-01-23T09:46:33.099Z,30.88
2023-01-23T09:49:04.013Z,30.76
2023-01-23T09:51:53.931Z,30.28
2023-01-23T09:54:29.284Z,30.73
2023-01-23T09:56:56.125Z,30.69
2023-01-23T09:59:53.924Z,30.77
2023-01-23T10:02:22.309Z,30.80
2023-01-23T10:04:51.537Z,31.19
2023-01-23T10:07:33.691Z,31.63
2023-01-23T10:10:37.436Z,31.99
2023-01-23T10:13:11.499Z,32.61
2023-01-23T10:15:51.637Z,32.93
2023-01-23T10:18:38.359Z,33.20
2023-01-23T10:21:20.919Z,33.44
2023-01-23T10:23:50.712Z,33.59
2023-01-23T10:26:24.906Z,33.42
2023-01-23T10:28:54.192Z,33.58
2023-01-23T10:31:30.181Z,33.90
2023-01-23T10:34:09.596Z,33.94
2023-01-23T10:37:05.917Z,34.13
2023-01-23T10:39:53.999Z,34.36
2023-01-23T10:42:22.422Z,34.67
2023-01-23T10:44:49.831Z,35.18
2023-01-23T10:47:35.506Z,35.22
2023-01-23T10:50:03.559Z,35.12
2023-01-23T10:52:40.727Z,34.92
2023-01-23T10:55:20.155Z,34.69
2023-01-23T10:57:49.321Z,34.53
2023-01-23T11:00:25.054Z,34.29
2023-01-23T11:02:51.766Z,34.17
2023-01-23T11:05:52.767Z,34.01
2023-01-23T11:08:27.451Z,33.87
2023-01-23T11:10:55.003Z,33.73
2023-01-23T11:13:29.193Z,33.72
2023-01-23T11:15:56.029Z,33.60
2023-01-23T11:18:28.740Z,33.55
2023-01-23T11:20:55.829Z,33.49
2023-01-23T11:23:22.552Z,33.49
2023-01-23T11:25:50.637Z,33.48
2023-01-23T11:28:23.760Z,33.34
2023-01-23T11:31:11.631Z,33.35
2023-01-23T11:33:52.639Z,33.25
2023-01-23T11:36:19.341Z,33.35
2023-01-23T11:38:52.992Z,33.27
2023-01-23T11:41:20.948Z,33.22
2023-01-23T11:43:47.888Z,33.16
2023-01-23T11:46:37.509Z,33.05
2023-01-23T11:49:42.354Z,33.09
2023-01-23T11:52:34.561Z,33.16
2023-01-23T11:55:13.770Z,33.19
2023-01-23T11:58:14.618Z,33.21
2023-01-23T12:00:45.612Z,33.11
2023-01-23T12:03:12.298Z,33.23
2023-01-23T12:06:20.266Z,33.20
2023-01-23T12:08:52.362Z,33.17
2023-01-23T12:11:20.406Z,33.11
2023-01-23T12:14:19.888Z,33.12
2023-01-23T12:16:55.078Z,33.08
2023-01-23T12:19:41.737Z,33.03
2023-01-23T12:22:19.429Z,33.14
2023-01-23T12:24:53.560Z,33.19
2023-01-23T12:27:39.120Z,33.10
2023-01-23T12:30:21.598Z,33.16
2023-01-23T12:33:03.818Z,33.10
2023-01-23T12:35:40.777Z,33.13
2023-01-23T12:38:15.525Z,33.18
2023-01-23T12:40:44.746Z,33.14
2023-01-23T12:43:19.899Z,33.13
2023-01-23T12:45:51.347Z,33.10
2023-01-23T12:48:30.889Z,33.07
2023-01-23T12:51:27.114Z,33.14
2023-01-23T12:53:57.548Z,33.10
2023-01-23T12:56:30.028Z,33.14
2023-01-23T12:59:00.755Z,33.00
2023-01-23T13:01:52.525Z,33.09
2023-01-23T13:04:26.779Z,33.07
2023-01-23T16:18:45.744Z,36.06
2023-01-23T16:21:15.558Z,34.73
2023-01-23T16:23:48.018Z,34.79
2023-01-23T16:26:21.231Z,34.73
2023-01-23T16:28:49.498Z,34.81
2023-01-23T16:31:20.348Z,34.72
2023-01-23T16:33:48.829Z,34.77
2023-01-23T16:36:18.732Z,34.71
2023-01-23T16:38:53.771Z,34.55
2023-01-23T16:41:22.655Z,34.52
2023-01-23T16:43:50.931Z,34.64
2023-01-23T16:46:20.358Z,34.56
2023-01-23T16:48:50.758Z,34.65
2023-01-23T16:51:20.168Z,34.58
2023-01-23T16:53:56.336Z,34.63
2023-01-23T16:56:38.233Z,34.51
2023-01-23T16:59:07.010Z,34.58
2023-01-23T17:01:39.167Z,34.52
2023-01-23T17:04:08.065Z,34.60
2023-01-23T17:06:36.445Z,34.56
2023-01-23T17:09:04.822Z,34.57
2023-01-23T17:11:35.598Z,34.56
2023-01-23T17:14:06.856Z,34.53
2023-01-23T17:16:35.150Z,34.48
2023-01-23T17:19:06.849Z,34.49
2023-01-23T17:21:35.421Z,34.45
2023-01-23T17:24:03.891Z,34.52
2023-01-23T17:26:32.382Z,34.47
2023-01-23T17:29:00.869Z,34.50
2023-01-23T17:31:29.446Z,34.43
2023-01-23T17:34:00.281Z,34.46
2023-01-23T17:36:28.760Z,34.33
2023-01-23T17:38:58.596Z,34.28
2023-01-23T17:41:28.696Z,34.23
2023-01-23T17:43:56.978Z,34.27
2023-01-23T17:46:27.159Z,34.32
2023-01-23T17:48:55.988Z,34.24
2023-01-23T17:51:25.176Z,34.35
2023-01-23T17:53:53.351Z,34.28
2023-01-23T17:56:23.783Z,34.35
2023-01-23T17:58:52.072Z,34.24
2023-01-23T18:01:22.651Z,34.26
2023-01-23T18:03:51.683Z,34.23
2023-01-23T18:06:20.053Z,34.29
2023-01-23T18:08:48.647Z,34.20
2023-01-23T18:11:19.016Z,34.22
2023-01-23T18:13:59.638Z,34.26
2023-01-23T18:16:32.192Z,34.24
2023-01-23T18:19:11.747Z,34.16
2023-01-23T18:21:40.329Z,34.21
2023-01-23T18:24:16.232Z,34.18
2023-01-23T18:26:53.991Z,34.20
2023-01-23T18:29:32.787Z,34.19
2023-01-23T18:32:07.077Z,34.16
2023-01-23T18:34:53.626Z,34.18
2023-01-23T18:37:33.786Z,34.14
2023-01-23T18:40:17.513Z,34.14
2023-01-23T18:42:55.626Z,34.14
2023-01-23T18:45:27.540Z,34.22
2023-01-23T18:47:57.607Z,34.13
2023-01-23T18:50:27.212Z,34.07
2023-01-23T18:53:12.483Z,34.15
2023-01-23T18:56:30.334Z,34.12
2023-01-23T18:59:13.656Z,34.05
2023-01-23T19:01:45.138Z,34.08
2023-01-23T19:04:14.685Z,34.17
2023-01-23T19:06:44.886Z,34.16
2023-01-23T19:09:20.190Z,34.09
2023-01-23T19:11:50.295Z,34.16
2023-01-23T19:14:43.455Z,34.04
2023-01-23T19:17:40.917Z,34.16
2023-01-23T19:20:23.220Z,34.15
2023-01-23T19:23:09.620Z,34.14
2023-01-23T19:25:38.002Z,34.16
2023-01-23T19:28:10.474Z,34.17
2023-01-23T19:30:39.318Z,34.15
2023-01-23T19:33:09.437Z,34.08
2023-01-23T19:35:37.562Z,34.12
2023-01-23T19:38:05.831Z,34.12
2023-01-23T19:40:34.315Z,34.07
2023-01-23T19:43:14.190Z,34.01
2023-01-23T19:45:44.389Z,33.91
2023-01-23T19:48:12.662Z,34.01
2023-01-23T19:50:40.938Z,34.02
2023-01-23T19:53:14.229Z,34.06
2023-01-23T19:55:43.022Z,34.06
2023-01-23T19:58:11.601Z,33.98
2023-01-23T20:00:41.484Z,34.06
2023-01-23T20:03:11.508Z,34.01
2023-01-23T20:05:39.910Z,34.02
2023-01-23T20:08:09.242Z,33.99
2023-01-23T20:10:38.307Z,33.97
2023-01-23T20:13:08.830Z,33.99
2023-01-23T20:15:37.748Z,33.89
2023-01-23T20:18:06.091Z,33.92
2023-01-23T20:20:34.482Z,33.98
2023-01-23T20:23:02.659Z,33.99
2023-01-23T20:25:32.470Z,33.94
2023-01-23T20:28:00.748Z,33.99
2023-01-23T20:30:30.843Z,33.96
2023-01-23T20:33:00.577Z,34.01
2023-01-23T20:35:29.721Z,33.98
2023-01-23T20:37:58.263Z,33.90
2023-01-23T20:40:29.603Z,33.95
2023-01-23T20:43:02.708Z,33.90
2023-01-23T20:45:31.988Z,33.93
2023-01-23T20:48:01.187Z,33.96
2023-01-23T20:50:29.565Z,33.99
2023-01-23T20:53:17.093Z,33.97
2023-01-23T20:55:45.278Z,33.97
2023-01-23T20:58:31.978Z,33.89
2023-01-23T21:01:00.213Z,33.87
2023-01-23T21:03:28.842Z,33.98
2023-01-23T21:05:57.319Z,33.96
2023-01-23T21:08:25.493Z,33.95
2023-01-23T21:10:54.903Z,33.90
2023-01-23T21:13:23.484Z,33.86
2023-01-23T21:16:03.025Z,33.83
2023-01-23T21:18:36.415Z,33.96
2023-01-23T21:21:08.069Z,33.97
2023-01-23T21:23:36.228Z,33.78
2023-01-23T21:26:05.657Z,33.83
2023-01-23T21:28:35.547Z,33.93
2023-01-23T21:31:13.356Z,33.86
2023-01-23T21:33:44.189Z,33.84
2023-01-23T21:36:17.408Z,33.89
2023-01-23T21:38:45.560Z,33.89
2023-01-23T21:41:16.683Z,33.87
2023-01-23T21:43:44.997Z,33.90
2023-01-23T21:46:13.319Z,33.80
2023-01-23T21:48:41.444Z,33.77
2023-01-23T21:51:11.210Z,33.73
2023-01-23T21:53:40.301Z,33.75
2023-01-23T21:56:09.514Z,33.67
2023-01-23T21:58:37.651Z,33.59
2023-01-23T22:01:34.032Z,33.68
2023-01-23T22:04:10.919Z,33.68
